Berry, Alabama
Current Conditions -  °F | °C
As of 10:35 AM on Saturday 22 Nov 2014 (Local Time) from KJFX Reporting Station
Clear Clear  
Wind Chill: 63°   Ceiling: Unl
Heat Index: 63°   Visibility: 10mi
Dew Point: 37°   Wind: 7mph
Humidity: 39%   Direction: 160°SSE
Pressure: 30.33"   Gusts: NA
Location:  33.66°N, 87.6°W
Report Text: KJFX 221635Z AUTO 16006KT 10SM CLR 17/03 A3033 RMK A02 P-128
Loading
Personal Weather Stations






























Interactive Weather Map New forecast layout! Learn more

10-Day Weather Forecast

Advertisements
Track Severe Weather on mobile